Main page
METAR-TAF:

METAR-TAF

Airports :

Mihail Kogălniceanu International Airport

Constanţa, Romania

latitude: 44-20N, longitude: 028-26E, elevation: 97 m

Current weather observation

The report was made 33 minutes ago, at 00:00 UTC
Wind 10 kt from the South
Temperature 2°C
Humidity 100%
Pressure 1022 hPa
Visibility 10 km or more
no clouds below 1500 m and no cumulonimbus

METAR: LRCK 180000Z 18010KT CAVOK 02/02 Q1022 NOSIG

Time: 02:33 (00:33 UTC)

Forecast

The report was made 1 hour and 33 minutes ago, at 23:00 UTC
Forecast valid from 18 at 00 UTC to 18 at 24 UTC
Wind 10 kt from the South/Southeast
Visibility 10 km or more
no clouds below 1500 m and no cumulonimbus
Temporary
from 18 at 01 UTC to 18 at 06 UTC
Visibility: 3000 m
mist
Becoming
from 18 at 11 UTC to 18 at 13 UTC
Wind 4 kt from variable directions
Becoming
from 18 at 21 UTC to 18 at 23 UTC
Wind 12 kt from the North

TAF: LRCK 172300Z 1800/1824 16010KT CAVOK TEMPO 1801/1806 3000 BR BECMG 1811/1813 VRB04KT BECMG 1821/1823 36012KT

Weather observations and forecasts of more than 4000 airports (METAR and TAF reports).

The available stations are represented by yellow and red dots on the map.

Hover mouse over dot to see the name of the station.

Then click to see weather observations and forecasts.

To change the map : click on the green buttons with a black cross to zoom in, on the green button with a dash to zoom out, or on the green arrows for adjacent maps.


METAR-TAF: